sensor_id;sensor_type;location;lat;lon;timestamp;P1;durP1;ratioP1;P2;durP2;ratioP2
10335;SDS011;5213;53.548;9.930;2023-02-22T00:02:20;27.83;;;14.50;;
10335;SDS011;5213;53.548;9.930;2023-02-22T00:04:51;29.45;;;14.48;;
10335;SDS011;5213;53.548;9.930;2023-02-22T00:07:18;26.73;;;14.48;;
10335;SDS011;5213;53.548;9.930;2023-02-22T00:09:45;29.88;;;14.60;;
10335;SDS011;5213;53.548;9.930;2023-02-22T00:12:11;30.52;;;15.48;;
10335;SDS011;5213;53.548;9.930;2023-02-22T00:14:38;33.70;;;15.73;;
10335;SDS011;5213;53.548;9.930;2023-02-22T00:17:04;31.92;;;16.23;;
10335;SDS011;5213;53.548;9.930;2023-02-22T00:19:30;36.03;;;17.55;;
10335;SDS011;5213;53.548;9.930;2023-02-22T00:21:56;44.95;;;18.73;;
10335;SDS011;5213;53.548;9.930;2023-02-22T00:24:22;40.35;;;17.98;;
10335;SDS011;5213;53.548;9.930;2023-02-22T00:26:52;41.28;;;19.02;;
10335;SDS011;5213;53.548;9.930;2023-02-22T00:29:22;43.28;;;19.73;;
10335;SDS011;5213;53.548;9.930;2023-02-22T00:31:48;41.38;;;19.33;;
10335;SDS011;5213;53.548;9.930;2023-02-22T00:34:14;46.53;;;18.65;;
10335;SDS011;5213;53.548;9.930;2023-02-22T00:36:46;46.33;;;18.42;;
10335;SDS011;5213;53.548;9.930;2023-02-22T00:39:32;42.13;;;16.85;;
10335;SDS011;5213;53.548;9.930;2023-02-22T00:41:58;47.60;;;19.23;;
10335;SDS011;5213;53.548;9.930;2023-02-22T00:44:24;39.65;;;17.05;;
10335;SDS011;5213;53.548;9.930;2023-02-22T00:46:51;42.20;;;17.02;;
10335;SDS011;5213;53.548;9.930;2023-02-22T00:49:17;41.80;;;17.33;;
10335;SDS011;5213;53.548;9.930;2023-02-22T00:51:43;41.05;;;17.80;;
10335;SDS011;5213;53.548;9.930;2023-02-22T00:54:09;46.75;;;18.70;;
10335;SDS011;5213;53.548;9.930;2023-02-22T00:56:36;51.65;;;17.25;;
10335;SDS011;5213;53.548;9.930;2023-02-22T00:59:02;45.45;;;17.52;;
10335;SDS011;5213;53.548;9.930;2023-02-22T01:01:29;47.67;;;19.20;;
10335;SDS011;5213;53.548;9.930;2023-02-22T01:03:55;56.47;;;19.73;;
10335;SDS011;5213;53.548;9.930;2023-02-22T01:06:21;44.70;;;18.30;;
10335;SDS011;5213;53.548;9.930;2023-02-22T01:08:47;46.50;;;17.75;;
10335;SDS011;5213;53.548;9.930;2023-02-22T01:11:14;45.08;;;18.70;;
10335;SDS011;5213;53.548;9.930;2023-02-22T01:13:41;44.65;;;18.23;;
10335;SDS011;5213;53.548;9.930;2023-02-22T01:16:09;43.40;;;18.02;;
10335;SDS011;5213;53.548;9.930;2023-02-22T01:18:35;47.80;;;19.40;;
10335;SDS011;5213;53.548;9.930;2023-02-22T01:21:02;46.13;;;18.67;;
10335;SDS011;5213;53.548;9.930;2023-02-22T01:23:29;48.58;;;19.15;;
10335;SDS011;5213;53.548;9.930;2023-02-22T01:25:55;45.00;;;19.70;;
10335;SDS011;5213;53.548;9.930;2023-02-22T01:28:21;41.47;;;17.67;;
10335;SDS011;5213;53.548;9.930;2023-02-22T01:30:47;47.00;;;19.25;;
10335;SDS011;5213;53.548;9.930;2023-02-22T01:33:13;42.80;;;18.35;;
10335;SDS011;5213;53.548;9.930;2023-02-22T01:35:40;47.38;;;20.27;;
10335;SDS011;5213;53.548;9.930;2023-02-22T01:38:07;46.92;;;19.08;;
10335;SDS011;5213;53.548;9.930;2023-02-22T01:40:35;43.97;;;18.70;;
10335;SDS011;5213;53.548;9.930;2023-02-22T01:43:13;42.50;;;19.02;;
10335;SDS011;5213;53.548;9.930;2023-02-22T01:45:44;44.85;;;19.85;;
10335;SDS011;5213;53.548;9.930;2023-02-22T01:48:17;42.05;;;20.48;;
10335;SDS011;5213;53.548;9.930;2023-02-22T01:53:35;49.30;;;21.27;;
10335;SDS011;5213;53.548;9.930;2023-02-22T01:56:02;48.67;;;20.05;;
10335;SDS011;5213;53.548;9.930;2023-02-22T01:58:29;55.28;;;20.80;;
10335;SDS011;5213;53.548;9.930;2023-02-22T02:00:57;76.35;;;21.17;;
10335;SDS011;5213;53.548;9.930;2023-02-22T02:03:24;55.45;;;21.02;;
10335;SDS011;5213;53.548;9.930;2023-02-22T02:05:51;52.70;;;20.55;;
10335;SDS011;5213;53.548;9.930;2023-02-22T02:11:06;55.53;;;20.17;;
10335;SDS011;5213;53.548;9.930;2023-02-22T02:13:33;65.05;;;20.40;;
10335;SDS011;5213;53.548;9.930;2023-02-22T02:15:59;79.40;;;20.38;;
10335;SDS011;5213;53.548;9.930;2023-02-22T02:18:25;61.92;;;19.45;;
10335;SDS011;5213;53.548;9.930;2023-02-22T02:34:02;62.75;;;20.55;;
10335;SDS011;5213;53.548;9.930;2023-02-22T02:36:30;61.95;;;20.17;;
10335;SDS011;5213;53.548;9.930;2023-02-22T02:39:01;55.00;;;18.98;;
10335;SDS011;5213;53.548;9.930;2023-02-22T02:41:41;68.50;;;21.23;;
10335;SDS011;5213;53.548;9.930;2023-02-22T02:49:28;55.92;;;19.00;;
10335;SDS011;5213;53.548;9.930;2023-02-22T02:51:55;53.42;;;17.98;;
10335;SDS011;5213;53.548;9.930;2023-02-22T02:54:22;63.63;;;17.88;;
10335;SDS011;5213;53.548;9.930;2023-02-22T02:56:49;54.00;;;18.73;;
10335;SDS011;5213;53.548;9.930;2023-02-22T03:12:07;56.60;;;18.30;;
10335;SDS011;5213;53.548;9.930;2023-02-22T03:17:19;51.70;;;16.60;;
10335;SDS011;5213;53.548;9.930;2023-02-22T03:19:54;55.38;;;17.08;;
10335;SDS011;5213;53.548;9.930;2023-02-22T03:27:21;53.83;;;15.63;;
10335;SDS011;5213;53.548;9.930;2023-02-22T03:29:49;65.47;;;16.55;;
10335;SDS011;5213;53.548;9.930;2023-02-22T03:32:19;58.97;;;16.33;;
10335;SDS011;5213;53.548;9.930;2023-02-22T03:35:08;51.45;;;17.48;;
10335;SDS011;5213;53.548;9.930;2023-02-22T03:37:33;50.45;;;16.90;;
10335;SDS011;5213;53.548;9.930;2023-02-22T03:40:02;53.03;;;16.02;;
10335;SDS011;5213;53.548;9.930;2023-02-22T03:42:38;54.55;;;15.80;;
10335;SDS011;5213;53.548;9.930;2023-02-22T03:45:05;55.70;;;15.10;;
10335;SDS011;5213;53.548;9.930;2023-02-22T03:47:38;59.28;;;16.98;;
10335;SDS011;5213;53.548;9.930;2023-02-22T03:50:10;45.00;;;15.88;;
10335;SDS011;5213;53.548;9.930;2023-02-22T03:52:39;48.85;;;16.73;;
10335;SDS011;5213;53.548;9.930;2023-02-22T03:55:07;61.03;;;17.27;;
10335;SDS011;5213;53.548;9.930;2023-02-22T03:57:35;60.38;;;18.45;;
10335;SDS011;5213;53.548;9.930;2023-02-22T04:00:05;47.70;;;17.05;;
10335;SDS011;5213;53.548;9.930;2023-02-22T04:02:31;56.42;;;17.77;;
10335;SDS011;5213;53.548;9.930;2023-02-22T04:04:57;50.25;;;17.67;;
10335;SDS011;5213;53.548;9.930;2023-02-22T04:07:23;51.10;;;18.15;;
10335;SDS011;5213;53.548;9.930;2023-02-22T04:09:49;47.55;;;18.00;;
10335;SDS011;5213;53.548;9.930;2023-02-22T04:12:15;42.03;;;17.55;;
10335;SDS011;5213;53.548;9.930;2023-02-22T04:14:42;40.33;;;17.73;;
10335;SDS011;5213;53.548;9.930;2023-02-22T04:17:08;43.28;;;18.35;;
10335;SDS011;5213;53.548;9.930;2023-02-22T04:19:34;41.20;;;18.33;;
10335;SDS011;5213;53.548;9.930;2023-02-22T04:22:00;38.97;;;17.75;;
10335;SDS011;5213;53.548;9.930;2023-02-22T04:24:26;38.35;;;17.50;;
10335;SDS011;5213;53.548;9.930;2023-02-22T04:26:52;38.13;;;17.88;;
10335;SDS011;5213;53.548;9.930;2023-02-22T04:29:19;34.67;;;17.83;;
10335;SDS011;5213;53.548;9.930;2023-02-22T04:31:45;34.72;;;17.75;;
10335;SDS011;5213;53.548;9.930;2023-02-22T04:34:11;32.97;;;16.02;;
10335;SDS011;5213;53.548;9.930;2023-02-22T04:36:37;33.03;;;15.63;;
10335;SDS011;5213;53.548;9.930;2023-02-22T04:39:06;34.22;;;16.17;;
10335;SDS011;5213;53.548;9.930;2023-02-22T04:41:32;35.40;;;16.75;;
10335;SDS011;5213;53.548;9.930;2023-02-22T04:43:58;36.63;;;16.48;;
10335;SDS011;5213;53.548;9.930;2023-02-22T04:46:24;34.83;;;16.08;;
10335;SDS011;5213;53.548;9.930;2023-02-22T04:48:50;32.72;;;15.88;;
10335;SDS011;5213;53.548;9.930;2023-02-22T04:51:16;32.22;;;15.93;;
10335;SDS011;5213;53.548;9.930;2023-02-22T04:53:44;33.75;;;15.73;;
10335;SDS011;5213;53.548;9.930;2023-02-22T04:56:10;35.22;;;16.75;;
10335;SDS011;5213;53.548;9.930;2023-02-22T04:58:36;40.55;;;16.15;;
10335;SDS011;5213;53.548;9.930;2023-02-22T05:01:02;37.83;;;16.02;;
10335;SDS011;5213;53.548;9.930;2023-02-22T05:03:29;39.55;;;15.35;;
10335;SDS011;5213;53.548;9.930;2023-02-22T05:05:55;45.92;;;15.63;;
10335;SDS011;5213;53.548;9.930;2023-02-22T05:08:21;43.00;;;15.98;;
10335;SDS011;5213;53.548;9.930;2023-02-22T05:10:47;37.60;;;16.02;;
10335;SDS011;5213;53.548;9.930;2023-02-22T05:13:13;39.22;;;15.57;;
10335;SDS011;5213;53.548;9.930;2023-02-22T05:15:39;42.42;;;16.13;;
10335;SDS011;5213;53.548;9.930;2023-02-22T05:18:05;38.25;;;16.15;;
10335;SDS011;5213;53.548;9.930;2023-02-22T05:20:33;40.42;;;17.15;;
10335;SDS011;5213;53.548;9.930;2023-02-22T05:23:00;40.08;;;15.65;;
10335;SDS011;5213;53.548;9.930;2023-02-22T05:25:26;48.70;;;16.60;;
10335;SDS011;5213;53.548;9.930;2023-02-22T05:27:53;44.45;;;18.80;;
10335;SDS011;5213;53.548;9.930;2023-02-22T05:30:24;52.88;;;16.52;;
10335;SDS011;5213;53.548;9.930;2023-02-22T05:32:50;42.33;;;16.52;;
10335;SDS011;5213;53.548;9.930;2023-02-22T05:35:17;42.88;;;16.52;;
10335;SDS011;5213;53.548;9.930;2023-02-22T05:37:43;50.85;;;16.25;;
10335;SDS011;5213;53.548;9.930;2023-02-22T05:40:09;45.05;;;16.55;;
10335;SDS011;5213;53.548;9.930;2023-02-22T05:42:36;52.22;;;16.08;;
10335;SDS011;5213;53.548;9.930;2023-02-22T05:45:02;55.72;;;17.67;;
10335;SDS011;5213;53.548;9.930;2023-02-22T05:47:28;56.47;;;17.50;;
10335;SDS011;5213;53.548;9.930;2023-02-22T05:49:54;54.15;;;17.42;;
10335;SDS011;5213;53.548;9.930;2023-02-22T05:52:20;66.00;;;17.92;;
10335;SDS011;5213;53.548;9.930;2023-02-22T05:54:46;47.97;;;16.88;;
10335;SDS011;5213;53.548;9.930;2023-02-22T05:57:12;65.70;;;18.58;;
10335;SDS011;5213;53.548;9.930;2023-02-22T05:59:38;60.55;;;17.67;;
10335;SDS011;5213;53.548;9.930;2023-02-22T06:02:04;57.38;;;17.92;;
10335;SDS011;5213;53.548;9.930;2023-02-22T06:04:30;68.55;;;18.40;;
10335;SDS011;5213;53.548;9.930;2023-02-22T06:06:56;57.88;;;17.48;;
10335;SDS011;5213;53.548;9.930;2023-02-22T06:09:22;55.72;;;18.45;;
10335;SDS011;5213;53.548;9.930;2023-02-22T06:11:48;45.25;;;17.20;;
10335;SDS011;5213;53.548;9.930;2023-02-22T06:14:14;53.17;;;17.30;;
10335;SDS011;5213;53.548;9.930;2023-02-22T06:16:40;58.88;;;17.08;;
10335;SDS011;5213;53.548;9.930;2023-02-22T06:19:06;50.05;;;17.83;;
10335;SDS011;5213;53.548;9.930;2023-02-22T06:21:32;63.10;;;18.60;;
10335;SDS011;5213;53.548;9.930;2023-02-22T06:24:00;50.78;;;17.65;;
10335;SDS011;5213;53.548;9.930;2023-02-22T06:26:28;56.28;;;18.38;;
10335;SDS011;5213;53.548;9.930;2023-02-22T06:28:54;95.55;;;18.35;;
10335;SDS011;5213;53.548;9.930;2023-02-22T06:31:20;70.00;;;19.58;;
10335;SDS011;5213;53.548;9.930;2023-02-22T06:33:46;73.60;;;18.38;;
10335;SDS011;5213;53.548;9.930;2023-02-22T06:36:12;72.22;;;18.98;;
10335;SDS011;5213;53.548;9.930;2023-02-22T06:38:38;67.25;;;18.70;;
10335;SDS011;5213;53.548;9.930;2023-02-22T06:41:04;55.58;;;18.98;;
10335;SDS011;5213;53.548;9.930;2023-02-22T06:43:30;52.67;;;18.30;;
10335;SDS011;5213;53.548;9.930;2023-02-22T06:45:56;56.53;;;18.77;;
10335;SDS011;5213;53.548;9.930;2023-02-22T06:48:22;61.90;;;18.40;;
10335;SDS011;5213;53.548;9.930;2023-02-22T06:50:48;67.03;;;19.60;;
10335;SDS011;5213;53.548;9.930;2023-02-22T06:53:14;56.85;;;17.67;;
10335;SDS011;5213;53.548;9.930;2023-02-22T06:55:40;51.63;;;18.65;;
10335;SDS011;5213;53.548;9.930;2023-02-22T06:58:06;51.00;;;17.90;;
10335;SDS011;5213;53.548;9.930;2023-02-22T07:00:32;57.22;;;16.95;;
10335;SDS011;5213;53.548;9.930;2023-02-22T07:02:59;57.00;;;18.88;;
10335;SDS011;5213;53.548;9.930;2023-02-22T07:05:25;64.97;;;19.63;;
10335;SDS011;5213;53.548;9.930;2023-02-22T07:08:00;47.25;;;17.05;;
10335;SDS011;5213;53.548;9.930;2023-02-22T07:10:27;47.10;;;17.58;;
10335;SDS011;5213;53.548;9.930;2023-02-22T07:12:54;61.97;;;17.92;;
10335;SDS011;5213;53.548;9.930;2023-02-22T07:15:21;49.92;;;16.98;;
10335;SDS011;5213;53.548;9.930;2023-02-22T07:17:48;50.72;;;18.15;;
10335;SDS011;5213;53.548;9.930;2023-02-22T07:20:14;51.78;;;18.13;;
10335;SDS011;5213;53.548;9.930;2023-02-22T07:22:40;43.22;;;16.08;;
10335;SDS011;5213;53.548;9.930;2023-02-22T07:25:07;39.80;;;15.65;;
10335;SDS011;5213;53.548;9.930;2023-02-22T07:27:35;44.85;;;16.75;;
10335;SDS011;5213;53.548;9.930;2023-02-22T07:30:01;42.03;;;16.17;;
10335;SDS011;5213;53.548;9.930;2023-02-22T07:32:27;44.20;;;17.65;;
10335;SDS011;5213;53.548;9.930;2023-02-22T07:34:53;41.35;;;16.90;;
10335;SDS011;5213;53.548;9.930;2023-02-22T07:37:19;41.33;;;17.02;;
10335;SDS011;5213;53.548;9.930;2023-02-22T07:39:45;39.70;;;16.70;;
10335;SDS011;5213;53.548;9.930;2023-02-22T07:42:11;40.63;;;17.15;;
10335;SDS011;5213;53.548;9.930;2023-02-22T07:44:37;38.13;;;15.98;;
10335;SDS011;5213;53.548;9.930;2023-02-22T07:47:03;35.20;;;15.82;;
10335;SDS011;5213;53.548;9.930;2023-02-22T07:49:29;41.70;;;17.65;;
10335;SDS011;5213;53.548;9.930;2023-02-22T07:51:55;35.47;;;16.20;;
10335;SDS011;5213;53.548;9.930;2023-02-22T07:54:21;37.75;;;16.23;;
10335;SDS011;5213;53.548;9.930;2023-02-22T07:56:47;36.38;;;16.60;;
10335;SDS011;5213;53.548;9.930;2023-02-22T07:59:14;35.65;;;17.15;;
10335;SDS011;5213;53.548;9.930;2023-02-22T08:01:40;34.08;;;16.10;;
10335;SDS011;5213;53.548;9.930;2023-02-22T08:04:06;34.03;;;15.75;;
10335;SDS011;5213;53.548;9.930;2023-02-22T08:06:32;32.60;;;15.98;;
10335;SDS011;5213;53.548;9.930;2023-02-22T08:08:58;32.30;;;15.55;;
10335;SDS011;5213;53.548;9.930;2023-02-22T08:11:24;29.73;;;15.00;;
10335;SDS011;5213;53.548;9.930;2023-02-22T08:13:51;36.08;;;15.82;;
10335;SDS011;5213;53.548;9.930;2023-02-22T08:16:16;29.92;;;15.57;;
10335;SDS011;5213;53.548;9.930;2023-02-22T08:18:42;32.05;;;16.20;;
10335;SDS011;5213;53.548;9.930;2023-02-22T08:21:08;30.08;;;15.93;;
10335;SDS011;5213;53.548;9.930;2023-02-22T08:23:35;32.05;;;14.32;;
10335;SDS011;5213;53.548;9.930;2023-02-22T08:26:05;27.48;;;15.07;;
10335;SDS011;5213;53.548;9.930;2023-02-22T08:28:32;30.85;;;15.98;;
10335;SDS011;5213;53.548;9.930;2023-02-22T08:30:58;26.33;;;14.45;;
10335;SDS011;5213;53.548;9.930;2023-02-22T08:33:24;29.25;;;15.45;;
10335;SDS011;5213;53.548;9.930;2023-02-22T08:35:50;28.50;;;14.98;;
10335;SDS011;5213;53.548;9.930;2023-02-22T08:40:42;30.33;;;16.48;;
10335;SDS011;5213;53.548;9.930;2023-02-22T08:43:08;25.45;;;14.32;;
10335;SDS011;5213;53.548;9.930;2023-02-22T08:45:34;29.92;;;16.08;;
10335;SDS011;5213;53.548;9.930;2023-02-22T08:48:00;29.15;;;15.43;;
10335;SDS011;5213;53.548;9.930;2023-02-22T08:50:28;28.08;;;15.27;;
10335;SDS011;5213;53.548;9.930;2023-02-22T08:52:57;27.58;;;14.20;;
10335;SDS011;5213;53.548;9.930;2023-02-22T08:55:26;25.88;;;14.45;;
10335;SDS011;5213;53.548;9.930;2023-02-22T08:57:54;26.92;;;14.10;;
10335;SDS011;5213;53.548;9.930;2023-02-22T09:00:20;24.92;;;13.93;;
10335;SDS011;5213;53.548;9.930;2023-02-22T09:02:49;25.33;;;14.45;;
10335;SDS011;5213;53.548;9.930;2023-02-22T09:05:15;25.70;;;14.05;;
10335;SDS011;5213;53.548;9.930;2023-02-22T09:07:41;21.33;;;12.18;;
10335;SDS011;5213;53.548;9.930;2023-02-22T09:10:12;24.52;;;13.57;;
10335;SDS011;5213;53.548;9.930;2023-02-22T09:12:39;24.13;;;13.38;;
10335;SDS011;5213;53.548;9.930;2023-02-22T09:15:05;27.25;;;14.55;;
10335;SDS011;5213;53.548;9.930;2023-02-22T09:17:31;26.00;;;14.45;;
10335;SDS011;5213;53.548;9.930;2023-02-22T09:20:01;25.52;;;14.45;;
10335;SDS011;5213;53.548;9.930;2023-02-22T09:22:27;24.10;;;14.40;;
10335;SDS011;5213;53.548;9.930;2023-02-22T09:24:53;24.67;;;14.20;;
10335;SDS011;5213;53.548;9.930;2023-02-22T09:27:19;26.80;;;15.30;;
10335;SDS011;5213;53.548;9.930;2023-02-22T09:29:46;27.13;;;15.13;;
10335;SDS011;5213;53.548;9.930;2023-02-22T09:32:12;26.15;;;14.60;;
10335;SDS011;5213;53.548;9.930;2023-02-22T09:34:41;24.65;;;14.40;;
10335;SDS011;5213;53.548;9.930;2023-02-22T09:37:10;23.23;;;14.40;;
10335;SDS011;5213;53.548;9.930;2023-02-22T09:39:36;24.60;;;14.50;;
10335;SDS011;5213;53.548;9.930;2023-02-22T09:42:05;25.63;;;14.52;;
10335;SDS011;5213;53.548;9.930;2023-02-22T09:44:45;26.00;;;14.43;;
10335;SDS011;5213;53.548;9.930;2023-02-22T09:47:22;24.85;;;14.55;;
10335;SDS011;5213;53.548;9.930;2023-02-22T09:50:06;24.48;;;14.93;;
10335;SDS011;5213;53.548;9.930;2023-02-22T09:52:40;24.42;;;14.32;;
10335;SDS011;5213;53.548;9.930;2023-02-22T09:57:55;24.88;;;13.45;;
10335;SDS011;5213;53.548;9.930;2023-02-22T10:00:23;22.63;;;14.15;;
10335;SDS011;5213;53.548;9.930;2023-02-22T10:05:33;21.63;;;13.98;;
10335;SDS011;5213;53.548;9.930;2023-02-22T10:08:02;24.27;;;14.00;;
10335;SDS011;5213;53.548;9.930;2023-02-22T10:10:37;22.60;;;13.95;;
10335;SDS011;5213;53.548;9.930;2023-02-22T10:13:22;21.70;;;13.57;;
10335;SDS011;5213;53.548;9.930;2023-02-22T10:26:22;21.52;;;13.63;;
10335;SDS011;5213;53.548;9.930;2023-02-22T10:28:53;18.60;;;12.60;;
10335;SDS011;5213;53.548;9.930;2023-02-22T10:31:23;22.10;;;14.20;;
10335;SDS011;5213;53.548;9.930;2023-02-22T10:33:54;21.25;;;13.88;;
10335;SDS011;5213;53.548;9.930;2023-02-22T10:36:22;21.02;;;13.95;;
10335;SDS011;5213;53.548;9.930;2023-02-22T10:38:58;20.20;;;14.25;;
10335;SDS011;5213;53.548;9.930;2023-02-22T10:41:32;21.55;;;14.25;;
10335;SDS011;5213;53.548;9.930;2023-02-22T10:44:00;21.63;;;14.77;;
10335;SDS011;5213;53.548;9.930;2023-02-22T10:46:26;22.20;;;15.05;;
10335;SDS011;5213;53.548;9.930;2023-02-22T10:48:54;23.55;;;15.13;;
10335;SDS011;5213;53.548;9.930;2023-02-22T10:51:21;22.25;;;14.73;;
10335;SDS011;5213;53.548;9.930;2023-02-22T10:54:22;20.25;;;14.57;;
10335;SDS011;5213;53.548;9.930;2023-02-22T10:56:52;20.73;;;14.52;;
10335;SDS011;5213;53.548;9.930;2023-02-22T10:59:26;23.95;;;14.98;;
10335;SDS011;5213;53.548;9.930;2023-02-22T11:01:53;23.10;;;15.95;;
10335;SDS011;5213;53.548;9.930;2023-02-22T11:04:19;22.85;;;15.38;;
10335;SDS011;5213;53.548;9.930;2023-02-22T11:06:47;23.48;;;15.77;;
10335;SDS011;5213;53.548;9.930;2023-02-22T11:09:17;23.77;;;16.58;;
10335;SDS011;5213;53.548;9.930;2023-02-22T11:11:46;23.88;;;16.33;;
10335;SDS011;5213;53.548;9.930;2023-02-22T11:14:23;24.75;;;15.93;;
10335;SDS011;5213;53.548;9.930;2023-02-22T11:16:50;26.17;;;15.35;;
10335;SDS011;5213;53.548;9.930;2023-02-22T11:19:18;23.25;;;15.48;;
10335;SDS011;5213;53.548;9.930;2023-02-22T11:21:47;22.50;;;14.88;;
10335;SDS011;5213;53.548;9.930;2023-02-22T11:24:15;22.13;;;15.52;;
10335;SDS011;5213;53.548;9.930;2023-02-22T11:26:44;22.38;;;15.88;;
10335;SDS011;5213;53.548;9.930;2023-02-22T11:29:12;24.08;;;16.05;;
10335;SDS011;5213;53.548;9.930;2023-02-22T11:31:40;22.67;;;15.75;;
10335;SDS011;5213;53.548;9.930;2023-02-22T11:34:07;19.98;;;15.25;;
10335;SDS011;5213;53.548;9.930;2023-02-22T11:36:49;18.48;;;14.23;;
10335;SDS011;5213;53.548;9.930;2023-02-22T11:39:28;19.77;;;14.50;;
10335;SDS011;5213;53.548;9.930;2023-02-22T11:41:58;19.67;;;14.18;;
10335;SDS011;5213;53.548;9.930;2023-02-22T11:44:38;19.17;;;14.93;;
10335;SDS011;5213;53.548;9.930;2023-02-22T11:47:08;21.63;;;14.80;;
10335;SDS011;5213;53.548;9.930;2023-02-22T11:49:36;23.05;;;15.63;;
10335;SDS011;5213;53.548;9.930;2023-02-22T11:57:12;20.20;;;14.48;;
10335;SDS011;5213;53.548;9.930;2023-02-22T12:02:30;20.40;;;15.32;;
10335;SDS011;5213;53.548;9.930;2023-02-22T12:21:14;19.42;;;13.98;;
10335;SDS011;5213;53.548;9.930;2023-02-22T12:23:49;19.60;;;13.45;;
10335;SDS011;5213;53.548;9.930;2023-02-22T12:26:23;17.25;;;13.05;;
10335;SDS011;5213;53.548;9.930;2023-02-22T12:28:52;17.10;;;12.88;;
10335;SDS011;5213;53.548;9.930;2023-02-22T12:31:43;18.35;;;12.93;;
10335;SDS011;5213;53.548;9.930;2023-02-22T12:37:10;19.60;;;15.25;;
10335;SDS011;5213;53.548;9.930;2023-02-22T12:39:36;17.58;;;12.85;;
10335;SDS011;5213;53.548;9.930;2023-02-22T12:42:06;19.27;;;13.32;;
10335;SDS011;5213;53.548;9.930;2023-02-22T12:44:37;15.75;;;12.45;;
10335;SDS011;5213;53.548;9.930;2023-02-22T12:47:04;20.73;;;13.07;;
10335;SDS011;5213;53.548;9.930;2023-02-22T12:57:18;15.50;;;11.57;;
10335;SDS011;5213;53.548;9.930;2023-02-22T13:02:15;16.55;;;11.68;;
10335;SDS011;5213;53.548;9.930;2023-02-22T13:04:42;15.75;;;11.40;;
10335;SDS011;5213;53.548;9.930;2023-02-22T13:07:10;14.98;;;11.35;;
10335;SDS011;5213;53.548;9.930;2023-02-22T13:12:30;15.75;;;11.07;;
10335;SDS011;5213;53.548;9.930;2023-02-22T13:15:03;16.42;;;11.05;;
10335;SDS011;5213;53.548;9.930;2023-02-22T13:20:39;16.05;;;11.98;;
10335;SDS011;5213;53.548;9.930;2023-02-22T13:23:10;14.02;;;10.93;;
10335;SDS011;5213;53.548;9.930;2023-02-22T13:25:41;16.50;;;11.18;;
10335;SDS011;5213;53.548;9.930;2023-02-22T13:30:39;15.90;;;11.55;;
10335;SDS011;5213;53.548;9.930;2023-02-22T13:33:09;13.27;;;10.55;;
10335;SDS011;5213;53.548;9.930;2023-02-22T13:41:23;15.93;;;10.93;;
10335;SDS011;5213;53.548;9.930;2023-02-22T13:51:46;14.30;;;10.73;;
10335;SDS011;5213;53.548;9.930;2023-02-22T13:56:43;15.30;;;11.18;;
10335;SDS011;5213;53.548;9.930;2023-02-22T13:59:28;11.35;;;9.35;;
10335;SDS011;5213;53.548;9.930;2023-02-22T14:01:55;13.13;;;10.57;;
10335;SDS011;5213;53.548;9.930;2023-02-22T14:07:00;13.90;;;10.38;;
10335;SDS011;5213;53.548;9.930;2023-02-22T14:09:41;11.95;;;10.00;;
10335;SDS011;5213;53.548;9.930;2023-02-22T14:12:12;13.18;;;10.93;;
10335;SDS011;5213;53.548;9.930;2023-02-22T14:18:12;14.25;;;10.95;;
10335;SDS011;5213;53.548;9.930;2023-02-22T14:20:35;13.05;;;10.55;;
10335;SDS011;5213;53.548;9.930;2023-02-22T14:25:46;14.52;;;10.80;;
10335;SDS011;5213;53.548;9.930;2023-02-22T14:31:07;14.73;;;11.13;;
10335;SDS011;5213;53.548;9.930;2023-02-22T14:36:19;15.13;;;10.98;;
10335;SDS011;5213;53.548;9.930;2023-02-22T14:38:46;12.68;;;10.50;;
10335;SDS011;5213;53.548;9.930;2023-02-22T14:41:17;12.73;;;9.77;;
10335;SDS011;5213;53.548;9.930;2023-02-22T14:43:44;16.45;;;10.20;;
10335;SDS011;5213;53.548;9.930;2023-02-22T14:46:11;16.05;;;10.90;;
10335;SDS011;5213;53.548;9.930;2023-02-22T14:48:40;14.85;;;10.93;;
10335;SDS011;5213;53.548;9.930;2023-02-22T14:56:07;18.02;;;11.45;;
10335;SDS011;5213;53.548;9.930;2023-02-22T14:58:38;18.00;;;11.48;;
10335;SDS011;5213;53.548;9.930;2023-02-22T15:03:44;15.95;;;11.02;;
10335;SDS011;5213;53.548;9.930;2023-02-22T15:08:43;16.05;;;10.82;;
10335;SDS011;5213;53.548;9.930;2023-02-22T15:11:20;17.73;;;11.93;;
10335;SDS011;5213;53.548;9.930;2023-02-22T15:13:51;15.15;;;11.15;;
10335;SDS011;5213;53.548;9.930;2023-02-22T15:16:17;18.20;;;11.82;;
10335;SDS011;5213;53.548;9.930;2023-02-22T15:18:45;16.40;;;11.52;;
10335;SDS011;5213;53.548;9.930;2023-02-22T15:21:13;14.05;;;10.60;;
10335;SDS011;5213;53.548;9.930;2023-02-22T15:26:06;15.73;;;11.32;;
10335;SDS011;5213;53.548;9.930;2023-02-22T15:28:32;19.83;;;10.70;;
10335;SDS011;5213;53.548;9.930;2023-02-22T15:31:15;15.00;;;10.90;;
10335;SDS011;5213;53.548;9.930;2023-02-22T15:33:41;14.48;;;10.45;;
10335;SDS011;5213;53.548;9.930;2023-02-22T15:36:11;14.77;;;11.00;;
10335;SDS011;5213;53.548;9.930;2023-02-22T15:38:38;18.80;;;10.95;;
10335;SDS011;5213;53.548;9.930;2023-02-22T15:41:05;15.70;;;11.05;;
10335;SDS011;5213;53.548;9.930;2023-02-22T15:43:37;15.02;;;10.88;;
10335;SDS011;5213;53.548;9.930;2023-02-22T15:46:04;14.80;;;11.18;;
10335;SDS011;5213;53.548;9.930;2023-02-22T15:48:31;14.50;;;10.43;;
10335;SDS011;5213;53.548;9.930;2023-02-22T15:51:08;14.48;;;10.48;;
10335;SDS011;5213;53.548;9.930;2023-02-22T15:53:39;17.38;;;11.10;;
10335;SDS011;5213;53.548;9.930;2023-02-22T15:56:08;14.10;;;10.30;;
10335;SDS011;5213;53.548;9.930;2023-02-22T15:58:35;14.00;;;10.68;;
10335;SDS011;5213;53.548;9.930;2023-02-22T16:01:06;15.85;;;10.40;;
10335;SDS011;5213;53.548;9.930;2023-02-22T16:03:45;16.85;;;11.27;;
10335;SDS011;5213;53.548;9.930;2023-02-22T16:06:13;17.48;;;11.75;;
10335;SDS011;5213;53.548;9.930;2023-02-22T16:08:42;15.88;;;11.10;;
10335;SDS011;5213;53.548;9.930;2023-02-22T16:11:10;17.52;;;11.82;;
10335;SDS011;5213;53.548;9.930;2023-02-22T16:13:40;16.33;;;11.85;;
10335;SDS011;5213;53.548;9.930;2023-02-22T16:18:44;15.70;;;12.13;;
10335;SDS011;5213;53.548;9.930;2023-02-22T16:21:11;14.70;;;11.82;;
10335;SDS011;5213;53.548;9.930;2023-02-22T16:26:17;15.90;;;11.85;;
10335;SDS011;5213;53.548;9.930;2023-02-22T16:28:48;17.17;;;11.65;;
10335;SDS011;5213;53.548;9.930;2023-02-22T16:31:18;16.48;;;12.73;;
10335;SDS011;5213;53.548;9.930;2023-02-22T16:33:45;16.17;;;12.35;;
10335;SDS011;5213;53.548;9.930;2023-02-22T16:36:13;16.73;;;13.15;;
10335;SDS011;5213;53.548;9.930;2023-02-22T16:38:39;15.93;;;11.70;;
10335;SDS011;5213;53.548;9.930;2023-02-22T16:41:08;15.68;;;11.88;;
10335;SDS011;5213;53.548;9.930;2023-02-22T16:43:34;20.88;;;13.02;;
10335;SDS011;5213;53.548;9.930;2023-02-22T16:46:01;19.88;;;13.40;;
10335;SDS011;5213;53.548;9.930;2023-02-22T16:48:28;18.52;;;11.48;;
10335;SDS011;5213;53.548;9.930;2023-02-22T16:50:55;17.45;;;11.88;;
10335;SDS011;5213;53.548;9.930;2023-02-22T16:53:24;21.17;;;12.82;;
10335;SDS011;5213;53.548;9.930;2023-02-22T16:55:51;18.58;;;12.65;;
10335;SDS011;5213;53.548;9.930;2023-02-22T16:58:21;18.90;;;12.57;;
10335;SDS011;5213;53.548;9.930;2023-02-22T17:00:48;18.20;;;12.30;;
10335;SDS011;5213;53.548;9.930;2023-02-22T17:03:15;16.05;;;12.13;;
10335;SDS011;5213;53.548;9.930;2023-02-22T17:05:41;17.58;;;12.73;;
10335;SDS011;5213;53.548;9.930;2023-02-22T17:08:08;21.95;;;13.45;;
10335;SDS011;5213;53.548;9.930;2023-02-22T17:10:34;18.83;;;12.77;;
10335;SDS011;5213;53.548;9.930;2023-02-22T17:13:00;20.33;;;13.63;;
10335;SDS011;5213;53.548;9.930;2023-02-22T17:15:27;18.23;;;12.82;;
10335;SDS011;5213;53.548;9.930;2023-02-22T17:17:54;20.55;;;13.45;;
10335;SDS011;5213;53.548;9.930;2023-02-22T17:20:21;20.00;;;13.50;;